Airport View

Enter AWOS ICAO identifier for current METAR.

ex. KFNL

KUNI 280155Z AUTO 00000KT 10SM CLR 17/17 A2985 RMK AO2 T01650165

28 Sep 2020 02:10

Frequency: 128.325

Phone: 740-597-2687

Other Area AWOS: K3I2 - KPMH - KPKB - KLHQ

TAF KPKB 272320Z 2800/2824 VRB03KT P6SM SCT045 FM281100 16004KT P6SM BKN035 FM281600 20007KT P6SM SCT035 FM281800 20010G16KT P6SM BKN045 FM282100 19008KT P6SM BKN060 FM282300 23006KT 6SM -RA BKN040